Nimbus Weather Services

Informe meteorológico para Carrasco, Uruguay. El informe se hizo hace 14 minutos, a las 02:00 UTC. El viento soplaba a una velocidad de 4.6 m/s (10.4 millas por hora) del este (090°). La temperatura era 9 °C (48 °F), con un punto de rocío de 7 °C (45 °F). La presión atmosférica era 1027 hPa (30.33 inHg). Había una humedad relativa del 87.3%. Cielo: algunas nubes a una altitud de 701 metros (2300 pies). Cielo nublado a partir de los 2438 metros (8000 pies) En aquel momento la visibilidad global era mayor de 10 kilómetros (6.2 millas). Actualmente lluvia leve.

La clave METAR es: SUMU 070200Z 09009KT 9999 -RA FEW023 OVC080 09/07 Q1027 TEMPO RADZ

Consulta realizada el Jueves 6 de Agosto de 2020 23:13. Tiempo usado para generar esta pagina:9,073 ms.